Falkville, Alabama
Current Conditions -  °F | °C
As of 1:15 PM on Saturday 25 Oct 2014 (Local Time) from KCMD Reporting Station
Clear Clear  
Wind Chill: 73°   Ceiling: Unl
Heat Index: 73°   Visibility: 10mi
Dew Point: 55°   Wind: 3mph
Humidity: 53%   Direction: 310°NW
Pressure: 30.1"   Gusts: NA
Location:  34.37°N, 86.91°W
Report Text: KCMD 251815Z AUTO 31003KT 10SM CLR 23/13 A3010 RMK AO2 T02290128
Loading
Personal Weather Stations






























Interactive Weather Map
Tropical Storm Tracking
New forecast layout! Learn more

10-Day Weather Forecast

Advertisements
Track Severe Weather on mobile